Time;durP1;ratioP1;P1;durP2;ratioP2;P2;SDS_P1;SDS_P2;PMS_P1;PMS_P2;Temp;Humidity;BMP_temperature;BMP_pressure;BME280_temperature;BME280_humidity;BME280_pressure;Samples;Min_cycle;Max_cycle;Signal;HPM_P1;HPM_P2
2021/06/07 00:03:17;;;;;;;30.20;20.40;;;;;;;15.41;72.29;101153.69;8737937;33;20251;-74
2021/06/07 00:08:21;;;;;;;33.30;19.88;;;;;;;15.39;72.28;101159.25;8739046;33;20231;-74
2021/06/07 00:13:25;;;;;;;32.40;19.50;;;;;;;15.40;72.34;101157.41;8716260;33;20239;-74
2021/06/07 00:18:29;;;;;;;33.00;19.65;;;;;;;15.39;72.31;101161.97;8736819;33;20267;-74
2021/06/07 00:23:32;;;;;;;31.40;21.48;;;;;;;15.34;72.55;101161.50;8736916;33;20671;-74
2021/06/07 00:28:35;;;;;;;36.38;21.23;;;;;;;15.30;72.63;101156.47;8736405;33;20251;-74
2021/06/07 00:33:41;;;;;;;36.50;21.60;;;;;;;15.27;72.38;101165.72;8736390;33;20270;-74
2021/06/07 00:38:44;;;;;;;34.28;21.63;;;;;;;15.24;72.40;101164.13;8735713;33;20272;-74
2021/06/07 00:43:48;;;;;;;35.30;21.50;;;;;;;15.14;72.52;101168.66;8736504;33;20258;-74
2021/06/07 00:48:55;;;;;;;31.92;20.85;;;;;;;15.18;72.65;101171.94;8736026;33;20268;-74
2021/06/07 00:53:58;;;;;;;35.75;20.73;;;;;;;15.14;72.19;101174.09;8711488;33;20792;-74
2021/06/07 00:59:01;;;;;;;31.95;22.25;;;;;;;15.11;72.64;101174.34;8734873;33;20708;-74
2021/06/07 01:04:05;;;;;;;35.80;20.95;;;;;;;14.96;72.45;101184.66;8735389;33;20276;-74
2021/06/07 01:09:09;;;;;;;32.95;21.10;;;;;;;15.00;72.46;101180.72;8735685;33;20925;-74
2021/06/07 01:14:11;;;;;;;34.65;20.85;;;;;;;14.97;72.65;101172.81;8735401;33;20226;-74
2021/06/07 01:19:19;;;;;;;31.55;20.17;;;;;;;14.81;72.46;101177.88;8711133;33;20322;-74
2021/06/07 01:24:23;;;;;;;33.38;21.42;;;;;;;14.64;72.53;101173.91;8735243;33;20262;-75
2021/06/07 01:29:25;;;;;;;31.30;19.95;;;;;;;14.52;72.83;101173.13;8735398;33;20212;-74
2021/06/07 01:34:28;;;;;;;34.10;21.00;;;;;;;14.38;73.05;101171.59;8735009;33;20232;-74
2021/06/07 01:39:32;;;;;;;34.70;21.23;;;;;;;14.27;73.31;101176.16;8735235;33;20235;-73
2021/06/07 01:44:35;;;;;;;33.80;21.58;;;;;;;14.21;73.54;101177.53;8738071;33;20243;-74
2021/06/07 01:49:38;;;;;;;37.60;21.95;;;;;;;14.18;73.67;101175.09;8735221;33;21383;-75
2021/06/07 01:54:42;;;;;;;32.13;20.10;;;;;;;14.16;73.72;101171.66;8734295;33;20750;-74
2021/06/07 01:59:44;;;;;;;36.78;21.23;;;;;;;14.16;74.00;101167.09;8734612;33;20239;-74
2021/06/07 02:04:47;;;;;;;34.50;21.48;;;;;;;14.12;73.85;101170.19;8734284;33;20231;-74
2021/06/07 02:09:51;;;;;;;35.28;22.75;;;;;;;14.10;74.13;101177.59;8736634;33;20623;-74
2021/06/07 02:14:54;;;;;;;37.90;21.83;;;;;;;14.09;73.83;101174.00;8739341;33;20682;-74
2021/06/07 02:19:56;;;;;;;37.03;22.30;;;;;;;14.20;73.67;101177.66;8739752;33;20232;-74
2021/06/07 02:25:00;;;;;;;35.55;21.90;;;;;;;14.24;73.57;101182.69;8739585;33;20306;-74
2021/06/07 02:30:08;;;;;;;37.65;22.00;;;;;;;14.23;73.88;101186.34;8739236;33;20363;-74
2021/06/07 02:35:17;;;;;;;37.42;23.10;;;;;;;14.25;73.73;101180.84;8738887;33;20278;-74
2021/06/07 02:40:26;;;;;;;32.58;21.30;;;;;;;14.26;73.33;101179.84;8739274;33;20681;-74
2021/06/07 02:45:29;;;;;;;39.35;23.55;;;;;;;14.18;73.24;101175.09;8739214;33;20212;-74
2021/06/07 02:50:35;;;;;;;35.83;22.80;;;;;;;14.13;73.87;101169.22;8738620;33;20468;-74
2021/06/07 02:55:43;;;;;;;33.10;20.83;;;;;;;14.16;73.70;101175.22;8739113;33;20224;-75
2021/06/07 03:00:50;;;;;;;37.42;21.52;;;;;;;14.26;73.79;101175.31;8739028;33;20233;-74
2021/06/07 03:05:54;;;;;;;38.28;22.13;;;;;;;13.96;74.08;101176.03;8738742;33;20235;-74
2021/06/07 03:11:02;;;;;;;36.63;21.77;;;;;;;14.06;74.37;101168.00;8714389;33;20917;-72
2021/06/07 03:16:06;;;;;;;43.40;21.17;;;;;;;14.23;73.90;101182.81;8737935;33;20242;-74
2021/06/07 03:21:10;;;;;;;36.63;20.60;;;;;;;14.26;73.41;101182.53;8737212;33;20236;-74
2021/06/07 03:26:15;;;;;;;37.05;21.25;;;;;;;14.29;73.37;101174.16;8738251;33;20303;-74
2021/06/07 03:31:18;;;;;;;34.50;20.77;;;;;;;14.22;73.15;101181.09;8738066;33;20936;-74
2021/06/07 03:36:22;;;;;;;36.17;21.23;;;;;;;14.25;73.09;101176.28;8737786;33;20879;-74
2021/06/07 03:41:26;;;;;;;36.63;21.25;;;;;;;14.25;73.35;101175.44;8737761;33;21116;-74
2021/06/07 03:46:29;;;;;;;36.25;20.92;;;;;;;14.23;72.95;101172.00;8737577;33;20253;-74
2021/06/07 03:51:33;;;;;;;35.70;20.70;;;;;;;14.24;73.34;101171.03;8713272;33;20235;-74
2021/06/07 03:56:37;;;;;;;38.60;21.48;;;;;;;14.38;73.02;101162.59;8737317;33;20228;-74
2021/06/07 04:01:40;;;;;;;34.15;20.00;;;;;;;14.52;72.39;101172.28;8737741;33;20263;-74
2021/06/07 04:06:42;;;;;;;37.65;19.98;;;;;;;14.60;71.90;101167.06;8737970;33;20262;-74
2021/06/07 04:11:46;;;;;;;39.45;20.77;;;;;;;14.73;71.86;101170.44;8737590;33;20617;-74
2021/06/07 04:16:49;;;;;;;31.02;21.13;;;;;;;14.73;71.46;101164.16;8736979;33;20236;-74
2021/06/07 04:21:52;;;;;;;34.00;21.20;;;;;;;14.73;71.63;101166.88;8737584;33;20235;-74
2021/06/07 04:26:56;;;;;;;34.03;20.23;;;;;;;14.70;71.71;101173.41;8736690;33;20247;-74
2021/06/07 04:31:59;;;;;;;37.38;21.08;;;;;;;14.73;71.65;101183.94;8737151;33;20358;-74
2021/06/07 04:37:02;;;;;;;34.92;20.60;;;;;;;14.80;71.10;101174.31;8713215;33;20729;-73
2021/06/07 04:42:07;;;;;;;38.53;21.38;;;;;;;14.85;71.11;101181.19;8737512;33;20231;-74
2021/06/07 04:47:10;;;;;;;37.42;21.63;;;;;;;14.88;71.29;101176.34;8712875;33;20228;-74
2021/06/07 04:52:13;;;;;;;37.03;21.45;;;;;;;14.79;71.93;101182.56;8737764;33;20223;-74
2021/06/07 04:57:17;;;;;;;24.00;14.77;;;;;;;15.14;71.41;101181.31;8712681;33;20624;-74
2021/06/07 05:02:20;;;;;;;22.98;14.60;;;;;;;15.29;70.64;101177.28;8737775;33;21459;-75
2021/06/07 05:07:22;;;;;;;28.85;18.25;;;;;;;15.51;69.98;101178.09;8737326;33;20260;-74
2021/06/07 05:12:26;;;;;;;28.05;17.05;;;;;;;15.50;69.19;101185.38;8736635;33;20220;-74
2021/06/07 05:17:29;;;;;;;23.83;14.77;;;;;;;15.58;68.89;101172.00;8742243;33;20289;-75
2021/06/07 05:22:32;;;;;;;21.60;14.27;;;;;;;15.60;68.76;101182.69;8736949;33;20235;-75
2021/06/07 05:27:36;;;;;;;36.80;21.02;;;;;;;15.69;68.70;101179.16;8735926;33;20220;-75
2021/06/07 05:32:39;;;;;;;32.40;19.52;;;;;;;15.19;69.36;101184.47;8736139;33;20269;-73
2021/06/07 05:37:42;;;;;;;27.83;17.55;;;;;;;15.24;69.03;101187.63;8735798;33;20219;-73
2021/06/07 05:42:47;;;;;;;29.55;17.15;;;;;;;15.56;69.19;101190.22;8736162;33;20228;-74
2021/06/07 05:47:50;;;;;;;26.42;16.42;;;;;;;16.08;67.64;101185.50;8740214;33;20230;-74
2021/06/07 05:52:53;;;;;;;29.83;18.10;;;;;;;16.47;66.38;101184.69;8717294;33;20236;-74
2021/06/07 05:58:00;;;;;;;26.15;15.25;;;;;;;16.32;64.71;101190.56;8740284;33;20235;-74
2021/06/07 06:03:04;;;;;;;24.60;16.33;;;;;;;16.24;64.09;101181.38;8740796;33;20228;-74
2021/06/07 06:08:08;;;;;;;26.05;15.77;;;;;;;16.25;63.54;101191.22;8740221;33;20220;-74
2021/06/07 06:13:12;;;;;;;19.17;13.45;;;;;;;16.18;63.47;101188.25;8740242;33;20721;-74
2021/06/07 06:18:15;;;;;;;22.35;15.25;;;;;;;16.39;64.02;101195.41;8739872;33;20231;-74
2021/06/07 06:23:18;;;;;;;23.20;13.55;;;;;;;16.69;63.05;101192.50;8739985;33;20724;-74
2021/06/07 06:28:22;;;;;;;22.13;15.02;;;;;;;17.09;62.71;101191.44;8709928;33;20240;-74
2021/06/07 06:33:24;;;;;;;25.15;15.05;;;;;;;17.33;61.25;101193.66;8681900;33;20228;-74
2021/06/07 06:38:27;;;;;;;26.60;15.50;;;;;;;17.63;60.72;101189.78;8656414;34;20260;-74
2021/06/07 06:43:31;;;;;;;21.02;13.00;;;;;;;17.28;61.05;101195.09;8679640;34;20275;-74
2021/06/07 06:48:34;;;;;;;23.35;15.27;;;;;;;16.58;62.64;101195.38;8681012;34;20227;-73
2021/06/07 06:53:37;;;;;;;18.65;10.75;;;;;;;17.14;62.04;101194.59;8681237;34;20692;-74
2021/06/07 06:58:41;;;;;;;21.55;14.48;;;;;;;17.11;62.26;101197.56;8680018;34;20252;-74
2021/06/07 07:03:46;;;;;;;20.27;14.18;;;;;;;17.20;60.59;101210.31;8681200;34;20228;-74
2021/06/07 07:08:49;;;;;;;20.67;14.35;;;;;;;18.15;59.77;101208.25;8680706;34;20259;-74
2021/06/07 07:13:54;;;;;;;20.38;13.70;;;;;;;18.42;57.90;101214.66;8716937;33;20902;-73
2021/06/07 07:18:57;;;;;;;20.83;14.30;;;;;;;18.06;59.20;101214.63;8680673;34;20259;-73
2021/06/07 07:23:59;;;;;;;18.10;12.57;;;;;;;19.34;56.79;101199.72;8680565;34;20645;-74
2021/06/07 07:29:03;;;;;;;17.65;12.57;;;;;;;19.61;54.95;101215.00;8680495;34;20936;-74
2021/06/07 07:34:06;;;;;;;15.05;10.40;;;;;;;19.79;53.03;101206.75;8679903;34;20244;-75
2021/06/07 07:39:09;;;;;;;16.13;12.65;;;;;;;19.93;53.68;101207.97;8656407;34;20269;-74
2021/06/07 07:44:13;;;;;;;16.48;12.13;;;;;;;20.11;53.81;101220.47;8679844;34;20225;-74
2021/06/07 07:49:16;;;;;;;17.38;11.90;;;;;;;20.44;53.53;101211.53;8679908;34;20228;-74
2021/06/07 07:54:19;;;;;;;15.52;11.65;;;;;;;20.36;52.05;101211.53;8679375;34;20268;-74
2021/06/07 07:59:23;;;;;;;15.82;11.32;;;;;;;19.61;53.38;101215.00;8655287;34;20228;-72
2021/06/07 08:04:26;;;;;;;17.77;11.55;;;;;;;19.73;53.69;101216.44;8679501;34;20233;-73
2021/06/07 08:09:30;;;;;;;16.77;11.73;;;;;;;20.41;53.23;101211.88;8730311;33;20964;-74
2021/06/07 08:14:34;;;;;;;15.65;11.98;;;;;;;20.81;52.86;101216.47;8736726;33;20267;-74
2021/06/07 08:19:38;;;;;;;16.30;12.25;;;;;;;21.25;50.96;101220.69;8736407;33;20352;-74
2021/06/07 08:24:41;;;;;;;19.13;13.93;;;;;;;21.57;50.37;101217.03;8713537;33;20432;-74
2021/06/07 08:29:45;;;;;;;20.35;13.30;;;;;;;21.68;49.67;101217.47;8738206;33;20727;-74
2021/06/07 08:34:48;;;;;;;18.92;13.05;;;;;;;21.65;49.73;101209.63;8736885;33;20227;-74
2021/06/07 08:39:51;;;;;;;16.98;13.32;;;;;;;19.68;53.08;101214.19;8736572;33;20235;-73
2021/06/07 08:44:55;;;;;;;17.17;13.02;;;;;;;20.43;51.31;101218.00;8738010;33;20290;-74
2021/06/07 08:49:58;;;;;;;17.17;12.63;;;;;;;20.85;50.11;101211.53;8738913;33;20231;-74
2021/06/07 08:55:04;;;;;;;14.60;11.43;;;;;;;20.61;50.83;101210.50;8711258;33;20362;-74
2021/06/07 09:00:11;;;;;;;15.55;11.40;;;;;;;21.94;48.24;101212.78;8734870;33;20270;-74
2021/06/07 09:05:17;;;;;;;14.88;11.35;;;;;;;22.30;47.35;101210.34;8735749;33;20614;-74
2021/06/07 09:10:21;;;;;;;16.05;11.18;;;;;;;22.63;47.02;101210.97;8735576;33;20220;-73
2021/06/07 09:15:29;;;;;;;15.48;11.32;;;;;;;20.92;49.45;101205.19;8735389;33;20230;-74
2021/06/07 09:20:33;;;;;;;13.07;10.20;;;;;;;20.82;51.58;101209.16;8710623;33;20752;-74
2021/06/07 09:25:38;;;;;;;15.80;11.75;;;;;;;21.07;50.73;101205.38;8734945;33;20350;-74
2021/06/07 09:30:50;;;;;;;19.20;11.75;;;;;;;21.95;48.84;101201.66;8711660;33;20613;-74
2021/06/07 09:36:20;;;;;;;13.32;10.60;;;;;;;21.89;47.65;101202.38;8736517;33;20239;-74
2021/06/07 09:41:24;;;;;;;15.93;11.38;;;;;;;20.78;51.09;101211.34;8735084;33;20232;-73
2021/06/07 09:46:32;;;;;;;15.40;11.07;;;;;;;20.80;52.14;101209.31;8706815;33;20223;-74
2021/06/07 09:51:35;;;;;;;16.98;11.73;;;;;;;20.78;51.71;101212.19;8737446;33;20273;-74
2021/06/07 09:56:49;;;;;;;16.30;11.25;;;;;;;20.86;52.22;101208.63;8743452;33;20220;-74
2021/06/07 10:01:56;;;;;;;18.02;11.50;;;;;;;20.77;52.44;101206.91;8737901;33;20243;-74
2021/06/07 10:07:07;;;;;;;17.58;12.38;;;;;;;21.47;51.19;101202.69;8733780;33;20780;-74
2021/06/07 10:12:24;;;;;;;18.92;12.90;;;;;;;22.05;49.73;101198.69;8732409;33;20866;-74
2021/06/07 10:17:29;;;;;;;17.38;12.27;;;;;;;21.14;50.82;101203.63;8732858;33;20362;-74
2021/06/07 10:22:31;;;;;;;19.42;11.05;;;;;;;20.02;54.63;101207.84;8733557;33;20755;-74
2021/06/07 10:27:35;;;;;;;16.10;10.85;;;;;;;20.29;54.77;101209.41;8734373;33;20255;-74
2021/06/07 10:32:46;;;;;;;18.23;12.05;;;;;;;20.59;53.36;101204.34;8737454;33;20723;-74
2021/06/07 10:38:08;;;;;;;16.40;11.13;;;;;;;21.19;52.12;101214.06;8739632;33;20224;-74
2021/06/07 10:43:12;;;;;;;16.25;11.77;;;;;;;21.58;50.86;101210.50;8739220;33;20231;-73
2021/06/07 10:48:33;;;;;;;19.48;11.85;;;;;;;21.12;51.45;101207.59;8739121;33;20932;-73
2021/06/07 10:53:39;;;;;;;15.85;11.13;;;;;;;21.09;51.95;101211.53;8738819;33;20281;-73
2021/06/07 10:58:54;;;;;;;18.00;12.48;;;;;;;20.79;52.07;101205.72;8738633;33;20220;-73
2021/06/07 11:04:00;;;;;;;16.60;11.32;;;;;;;20.64;53.74;101212.88;8741281;33;20212;-73
2021/06/07 11:09:08;;;;;;;23.05;12.80;;;;;;;20.63;53.41;101215.81;8732154;33;20255;-73
2021/06/07 11:14:11;;;;;;;17.75;11.75;;;;;;;20.59;53.66;101211.69;8738950;33;20315;-73
2021/06/07 11:19:17;;;;;;;20.73;11.40;;;;;;;20.42;53.62;101210.84;8739359;33;20678;-74
2021/06/07 11:24:28;;;;;;;15.32;10.80;;;;;;;20.17;54.21;101215.38;8738424;33;20280;-73
2021/06/07 11:30:08;;;;;;;20.25;10.98;;;;;;;20.06;54.86;101206.47;8738741;33;20224;-74
2021/06/07 11:35:40;;;;;;;15.32;10.45;;;;;;;20.09;54.56;101208.88;8738707;33;20830;-73
2021/06/07 11:40:42;;;;;;;13.45;10.77;;;;;;;20.47;53.76;101205.72;8739579;33;20243;-74
2021/06/07 11:45:45;;;;;;;10.88;7.82;;;;;;;20.77;50.88;101209.66;8737635;33;20252;-73
2021/06/07 11:50:49;;;;;;;7.43;6.35;;;;;;;21.48;47.26;101199.81;8738437;33;20279;-73
2021/06/07 11:55:55;;;;;;;8.02;6.70;;;;;;;21.95;46.31;101198.09;8737536;33;20640;-75
2021/06/07 12:01:00;;;;;;;8.60;6.60;;;;;;;22.33;44.74;101197.13;8738249;33;20223;-75
2021/06/07 12:06:08;;;;;;;7.22;6.38;;;;;;;22.73;45.81;101192.38;8738468;33;20232;-74
2021/06/07 12:11:11;;;;;;;10.27;7.75;;;;;;;24.00;43.43;101191.50;8738438;33;20228;-74
2021/06/07 12:16:16;;;;;;;10.30;7.65;;;;;;;24.66;41.41;101183.09;8738001;33;20643;-74
2021/06/07 12:21:23;;;;;;;10.57;7.28;;;;;;;24.64;42.70;101179.69;8738196;33;20219;-73
2021/06/07 12:32:14;;;;;;;8.82;7.65;;;;;;;25.76;41.50;101171.34;8737289;33;20228;-73
2021/06/07 12:37:27;;;;;;;10.23;8.68;;;;;;;26.12;40.38;101159.16;8726715;33;20220;-73
2021/06/07 12:42:33;;;;;;;11.27;8.38;;;;;;;23.60;45.47;101169.03;8737463;33;20235;-72
2021/06/07 12:47:36;;;;;;;11.05;7.63;;;;;;;23.74;45.83;101164.56;8711608;33;20227;-72
2021/06/07 12:52:41;;;;;;;14.07;9.77;;;;;;;24.28;45.25;101166.88;8736022;33;20227;-75
2021/06/07 12:57:44;;;;;;;9.50;8.00;;;;;;;23.85;44.31;101162.19;8707341;33;20227;-72
2021/06/07 13:02:47;;;;;;;11.40;8.50;;;;;;;23.53;45.23;101158.00;8735728;33;20228;-73
2021/06/07 13:08:11;;;;;;;9.50;7.68;;;;;;;23.21;46.18;101157.34;8736242;33;20231;-74
2021/06/07 13:13:20;;;;;;;9.27;7.72;;;;;;;23.60;46.00;101141.59;8735601;33;20243;-74
2021/06/07 13:18:22;;;;;;;9.85;8.82;;;;;;;23.58;46.12;101150.00;8735692;33;20350;-74
2021/06/07 13:23:40;;;;;;;10.93;8.50;;;;;;;23.37;47.25;101152.72;8735722;33;20228;-74
2021/06/07 13:28:43;;;;;;;10.43;8.45;;;;;;;22.83;45.89;101147.47;8735196;33;20251;-74
2021/06/07 13:33:49;;;;;;;11.35;8.75;;;;;;;22.24;47.93;101156.31;8734299;33;20234;-74
2021/06/07 13:38:59;;;;;;;9.20;8.27;;;;;;;22.01;48.89;101143.50;8734602;33;21529;-74
2021/06/07 13:44:01;;;;;;;12.65;9.18;;;;;;;21.08;51.22;101155.19;8734705;33;20237;-73
2021/06/07 13:49:15;;;;;;;11.13;8.95;;;;;;;20.73;51.92;101142.75;8735117;33;20215;-74
2021/06/07 13:54:19;;;;;;;11.63;9.18;;;;;;;21.23;51.95;101147.13;8735069;33;20230;-74
2021/06/07 13:59:22;;;;;;;11.02;9.77;;;;;;;21.47;51.43;101148.88;8710150;33;20216;-74
2021/06/07 14:04:24;;;;;;;13.90;9.95;;;;;;;21.42;51.69;101151.31;8733972;33;20232;-75
2021/06/07 14:09:30;;;;;;;11.95;9.18;;;;;;;21.50;51.26;101143.06;8739918;33;20239;-74
2021/06/07 14:14:32;;;;;;;12.05;9.93;;;;;;;21.35;52.20;101145.69;8715285;33;20286;-74
2021/06/07 14:19:35;;;;;;;12.32;9.80;;;;;;;21.60;51.53;101142.84;8740655;33;20236;-75
2021/06/07 14:24:40;;;;;;;13.65;10.27;;;;;;;20.76;53.03;101140.56;8739220;33;20324;-75
2021/06/07 14:29:42;;;;;;;12.75;9.85;;;;;;;21.17;52.59;101134.16;8739757;33;20251;-75
2021/06/07 14:34:45;;;;;;;12.90;10.25;;;;;;;20.69;53.56;101130.50;8738828;33;20228;-75
2021/06/07 14:39:49;;;;;;;13.43;10.00;;;;;;;21.35;53.08;101136.66;8738563;33;20239;-75
2021/06/07 14:44:52;;;;;;;11.00;9.90;;;;;;;21.48;52.57;101127.91;8741279;33;20259;-74
2021/06/07 14:49:54;;;;;;;13.50;9.90;;;;;;;21.84;52.92;101123.59;8740791;33;20239;-74
2021/06/07 14:54:58;;;;;;;13.32;9.98;;;;;;;22.11;50.93;101116.75;8738405;33;20752;-75
2021/06/07 15:00:01;;;;;;;11.60;9.63;;;;;;;22.20;50.52;101119.44;8739327;33;20220;-73
2021/06/07 15:05:05;;;;;;;12.43;10.45;;;;;;;21.83;51.31;101116.44;8738095;33;20796;-75
2021/06/07 15:10:10;;;;;;;12.95;9.85;;;;;;;21.50;52.45;101114.88;8743835;33;20227;-75
2021/06/07 15:15:13;;;;;;;13.45;10.45;;;;;;;21.03;53.39;101119.31;8739832;33;20918;-74
2021/06/07 15:20:17;;;;;;;10.77;8.93;;;;;;;20.56;55.21;101114.63;8738038;33;20232;-74
2021/06/07 15:25:21;;;;;;;10.57;9.32;;;;;;;20.75;55.39;101122.44;8738763;33;20223;-75
2021/06/07 15:30:24;;;;;;;12.30;10.63;;;;;;;20.49;54.35;101117.22;8738980;33;21417;-74
2021/06/07 15:35:43;;;;;;;16.25;9.60;;;;;;;20.52;55.37;101114.13;8737849;33;20251;-74
2021/06/07 15:40:50;;;;;;;10.23;7.50;;;;;;;20.45;56.00;101115.84;8720493;33;20243;-74
2021/06/07 15:45:54;;;;;;;11.48;10.25;;;;;;;20.38;55.53;101109.38;8687796;33;20278;-74
2021/06/07 15:50:59;;;;;;;12.05;10.85;;;;;;;20.33;56.02;101118.06;8730756;33;20274;-75
2021/06/07 15:56:05;;;;;;;14.88;11.38;;;;;;;20.44;55.54;101111.41;8736618;33;20259;-74
2021/06/07 16:01:12;;;;;;;14.23;11.00;;;;;;;20.27;55.82;101106.97;8737690;33;20350;-74
2021/06/07 16:06:18;;;;;;;12.60;11.30;;;;;;;20.27;55.91;101104.25;8711853;33;20759;-74
2021/06/07 16:11:22;;;;;;;13.93;10.73;;;;;;;20.38;55.56;101108.50;8733190;33;20246;-75
2021/06/07 16:16:27;;;;;;;15.70;11.73;;;;;;;20.35;55.77;101096.09;8737324;33;20224;-75
2021/06/07 16:21:29;;;;;;;12.18;9.43;;;;;;;20.45;55.68;101101.34;8737965;33;20791;-75
2021/06/07 16:26:33;;;;;;;13.30;11.10;;;;;;;20.35;55.87;101107.00;8737546;33;20220;-74
2021/06/07 16:31:36;;;;;;;13.23;11.35;;;;;;;20.33;55.88;101101.69;8737620;33;20301;-75
2021/06/07 16:36:39;;;;;;;13.80;10.93;;;;;;;20.24;56.21;101102.69;8737754;33;20227;-74
2021/06/07 16:41:44;;;;;;;14.93;10.35;;;;;;;20.15;56.08;101094.66;8738318;33;20243;-74
2021/06/07 16:46:47;;;;;;;13.38;11.63;;;;;;;20.08;56.58;101087.19;8737506;33;20463;-74
2021/06/07 16:51:49;;;;;;;15.68;13.15;;;;;;;19.98;56.73;101091.94;8736959;33;20234;-75
2021/06/07 16:56:53;;;;;;;14.70;11.32;;;;;;;19.95;57.51;101091.44;8736981;33;20228;-74
2021/06/07 17:01:56;;;;;;;17.30;13.75;;;;;;;19.85;57.58;101086.13;8737107;33;20235;-74
2021/06/07 17:06:59;;;;;;;16.25;13.63;;;;;;;19.67;57.93;101094.44;8739148;33;21012;-74
2021/06/07 17:12:04;;;;;;;28.25;14.13;;;;;;;19.52;58.15;101085.19;8721065;33;20240;-74
2021/06/07 17:17:07;;;;;;;20.67;13.93;;;;;;;19.45;58.79;101091.28;8680187;34;20263;-74
2021/06/07 17:22:10;;;;;;;19.20;13.80;;;;;;;19.37;59.28;101091.25;8679088;34;20233;-75
2021/06/07 17:27:14;;;;;;;22.92;12.75;;;;;;;19.35;59.19;101097.91;8654837;34;20227;-75
2021/06/07 17:32:17;;;;;;;16.70;13.20;;;;;;;19.31;59.66;101099.22;8695110;33;20220;-74
2021/06/07 17:37:20;;;;;;;17.30;13.38;;;;;;;19.29;59.56;101096.69;8735957;33;20298;-74
2021/06/07 17:42:24;;;;;;;17.13;13.50;;;;;;;19.28;59.88;101100.44;8738477;33;20724;-74
2021/06/07 17:47:26;;;;;;;15.88;13.05;;;;;;;19.18;60.16;101108.72;8740292;33;20223;-74
2021/06/07 17:52:29;;;;;;;18.70;13.10;;;;;;;19.10;60.45;101103.25;8740648;33;20255;-75
2021/06/07 17:57:33;;;;;;;17.83;13.82;;;;;;;19.00;60.60;101111.50;8740489;33;20855;-75
2021/06/07 18:02:36;;;;;;;17.30;14.10;;;;;;;18.94;60.95;101109.44;8716596;33;20223;-75
2021/06/07 18:07:40;;;;;;;15.63;13.23;;;;;;;18.97;61.02;101106.41;8736003;33;20224;-74
2021/06/07 18:12:46;;;;;;;18.77;13.73;;;;;;;18.94;61.03;101108.59;8735784;33;20227;-74
2021/06/07 18:17:52;;;;;;;19.52;13.82;;;;;;;18.93;61.09;101120.50;8710823;33;20246;-74
2021/06/07 18:22:55;;;;;;;18.85;14.30;;;;;;;18.85;60.77;101110.44;8741126;33;20759;-75
2021/06/07 18:28:01;;;;;;;20.98;14.13;;;;;;;18.75;61.16;101115.94;8740915;33;20232;-74
2021/06/07 18:33:04;;;;;;;24.48;14.80;;;;;;;18.69;61.41;101115.72;8735793;33;20342;-73
2021/06/07 18:38:06;;;;;;;19.58;14.38;;;;;;;18.52;61.72;101121.06;8739176;33;20227;-74
2021/06/07 18:43:12;;;;;;;22.63;15.90;;;;;;;18.49;61.81;101125.97;8737883;33;20220;-74
2021/06/07 18:48:17;;;;;;;20.60;14.93;;;;;;;18.51;61.96;101126.63;8738882;33;20247;-73
2021/06/07 18:53:21;;;;;;;21.90;13.82;;;;;;;18.47;61.99;101128.84;8739379;33;21839;-74
2021/06/07 18:58:26;;;;;;;18.90;14.93;;;;;;;18.45;61.90;101119.13;8739028;33;20250;-74
2021/06/07 19:03:29;;;;;;;20.02;14.45;;;;;;;18.38;62.13;101126.22;8740299;33;20682;-74
2021/06/07 19:08:32;;;;;;;20.38;13.77;;;;;;;18.30;62.23;101121.56;8741967;33;20636;-74
2021/06/07 19:13:36;;;;;;;19.77;14.38;;;;;;;18.28;62.16;101120.84;8740257;33;20224;-74
2021/06/07 19:18:38;;;;;;;17.92;13.23;;;;;;;18.21;62.39;101126.09;8715486;33;20239;-73
2021/06/07 19:23:41;;;;;;;18.92;13.95;;;;;;;18.12;62.47;101119.69;8739723;33;21597;-74
2021/06/07 19:28:45;;;;;;;18.90;14.13;;;;;;;18.05;62.48;101123.22;8739321;33;20766;-74
2021/06/07 19:33:48;;;;;;;18.17;13.43;;;;;;;18.01;62.88;101124.53;8741299;33;20752;-73
2021/06/07 19:38:50;;;;;;;18.90;13.98;;;;;;;17.94;63.34;101137.84;8741588;33;20231;-74
2021/06/07 19:43:54;;;;;;;19.90;13.75;;;;;;;17.91;63.06;101136.31;8739355;33;20266;-73
2021/06/07 19:48:57;;;;;;;17.58;12.98;;;;;;;17.87;63.28;101151.19;8737683;33;20228;-73
2021/06/07 19:53:59;;;;;;;18.45;13.65;;;;;;;17.83;62.97;101154.38;8710049;33;20231;-73
2021/06/07 19:59:04;;;;;;;20.13;13.30;;;;;;;17.76;63.37;101156.00;8742829;33;20232;-73
2021/06/07 20:04:06;;;;;;;18.42;12.38;;;;;;;17.72;63.57;101154.56;8735955;33;20239;-73
2021/06/07 20:09:09;;;;;;;18.83;13.88;;;;;;;17.69;63.50;101153.06;8736147;33;20223;-73
2021/06/07 20:14:13;;;;;;;20.92;13.88;;;;;;;17.57;63.39;101152.38;8735151;33;20219;-73
2021/06/07 20:19:16;;;;;;;16.30;12.95;;;;;;;17.52;63.62;101149.25;8735397;33;20860;-73
2021/06/07 20:24:20;;;;;;;16.63;13.20;;;;;;;17.39;63.99;101144.19;8735372;33;20236;-73
2021/06/07 20:29:24;;;;;;;19.42;13.90;;;;;;;17.20;64.36;101157.88;8734689;33;20227;-73
2021/06/07 20:34:27;;;;;;;19.05;14.02;;;;;;;17.13;64.34;101163.00;8731086;33;20235;-73
2021/06/07 20:39:30;;;;;;;17.17;12.90;;;;;;;17.07;64.16;101152.72;8736299;33;20228;-73
2021/06/07 20:44:34;;;;;;;20.45;13.30;;;;;;;17.03;64.27;101149.47;8736162;33;20223;-74
2021/06/07 20:49:37;;;;;;;16.60;13.48;;;;;;;16.99;64.40;101150.75;8735886;33;20232;-74
2021/06/07 20:54:39;;;;;;;20.52;14.55;;;;;;;16.95;64.79;101152.06;8710116;33;90008;-74
2021/06/07 20:59:44;;;;;;;19.08;12.82;;;;;;;16.86;65.04;101150.22;8738121;33;21887;-74
2021/06/07 21:04:47;;;;;;;17.58;13.05;;;;;;;16.65;65.67;101150.41;8695172;33;20235;-74
2021/06/07 21:09:51;;;;;;;19.50;13.65;;;;;;;16.36;66.54;101155.88;8705596;33;21062;-74
2021/06/07 21:14:55;;;;;;;19.35;13.25;;;;;;;16.14;67.10;101160.53;8690708;33;20236;-74
2021/06/07 21:19:58;;;;;;;19.23;13.07;;;;;;;16.00;67.64;101162.81;8681800;34;21537;-74
2021/06/07 21:25:00;;;;;;;18.08;13.60;;;;;;;15.90;68.23;101160.94;8678142;34;20255;-74
2021/06/07 21:30:07;;;;;;;20.40;14.13;;;;;;;15.52;69.37;101166.25;8680113;34;20260;-74
2021/06/07 21:35:11;;;;;;;21.33;15.45;;;;;;;15.51;69.53;101167.28;8678947;34;20630;-74
2021/06/07 21:40:15;;;;;;;21.60;15.15;;;;;;;15.47;69.51;101169.41;8679577;34;20232;-74
2021/06/07 21:45:19;;;;;;;20.83;14.18;;;;;;;15.37;69.79;101161.25;8679815;34;20306;-74
2021/06/07 21:50:22;;;;;;;22.73;14.52;;;;;;;15.40;70.19;101162.81;8677750;34;20236;-73
2021/06/07 21:55:25;;;;;;;23.85;15.82;;;;;;;15.40;69.68;101165.53;8677856;34;20653;-74
2021/06/07 22:00:29;;;;;;;24.35;16.23;;;;;;;15.42;70.02;101168.97;8654613;34;20251;-75
2021/06/07 22:05:32;;;;;;;21.77;15.48;;;;;;;15.41;69.71;101169.94;8677214;34;21471;-75
2021/06/07 22:10:35;;;;;;;21.73;15.75;;;;;;;15.44;69.62;101164.25;8678326;34;20224;-73
2021/06/07 22:15:39;;;;;;;19.10;13.93;;;;;;;15.42;69.67;101179.78;8678327;34;20243;-74
2021/06/07 22:20:42;;;;;;;22.90;14.63;;;;;;;15.37;69.63;101177.47;8677466;34;20227;-74
2021/06/07 22:25:45;;;;;;;22.88;15.05;;;;;;;15.40;69.61;101179.06;8677445;34;20327;-74
2021/06/07 22:30:49;;;;;;;26.80;17.15;;;;;;;15.42;70.20;101174.38;8681878;34;20240;-73
2021/06/07 22:35:52;;;;;;;24.13;16.98;;;;;;;15.59;69.77;101180.97;8681942;34;20311;-74
2021/06/07 22:40:55;;;;;;;25.88;16.38;;;;;;;15.60;69.58;101177.25;8682416;34;20247;-74
2021/06/07 22:45:59;;;;;;;28.30;17.60;;;;;;;15.71;69.86;101179.84;8681362;34;20236;-74
2021/06/07 22:51:01;;;;;;;24.27;16.02;;;;;;;15.87;69.24;101185.59;8681318;34;20264;-74
2021/06/07 22:56:06;;;;;;;26.83;16.75;;;;;;;15.90;69.08;101187.19;8680814;34;20254;-73
2021/06/07 23:01:10;;;;;;;26.13;17.17;;;;;;;15.97;69.00;101185.63;8681352;34;20232;-73
2021/06/07 23:06:13;;;;;;;26.13;15.75;;;;;;;16.01;68.92;101178.91;8680593;34;20327;-75
2021/06/07 23:11:16;;;;;;;28.00;17.08;;;;;;;16.07;68.80;101178.38;8680814;34;20229;-73
2021/06/07 23:16:20;;;;;;;23.55;16.10;;;;;;;16.12;68.86;101186.06;8680037;34;20639;-74